createdAt,value
2019-02-25T00:00:25.404Z,4.50
2019-02-25T00:03:02.190Z,4.60
2019-02-25T00:05:52.747Z,4.50
2019-02-25T00:08:24.900Z,4.40
2019-02-25T00:10:52.697Z,4.50
2019-02-25T00:13:20.494Z,4.50
2019-02-25T00:15:48.269Z,4.50
2019-02-25T00:18:16.779Z,4.50
2019-02-25T00:20:44.390Z,4.60
2019-02-25T00:23:12.170Z,4.60
2019-02-25T00:25:39.796Z,4.70
2019-02-25T00:28:07.476Z,4.60
2019-02-25T00:30:37.624Z,4.70
2019-02-25T00:33:05.575Z,4.60
2019-02-25T00:35:33.521Z,4.60
2019-02-25T00:38:02.124Z,4.60
2019-02-25T00:40:29.852Z,4.60
2019-02-25T00:42:57.537Z,4.60
2019-02-25T00:45:25.175Z,4.60
2019-02-25T00:47:55.934Z,4.50
2019-02-25T00:50:24.048Z,4.60
2019-02-25T00:52:51.764Z,4.40
2019-02-25T00:55:20.356Z,4.50
2019-02-25T00:57:48.476Z,4.40
2019-02-25T01:00:17.371Z,4.40
2019-02-25T01:02:45.283Z,4.40
2019-02-25T01:05:13.724Z,4.20
2019-02-25T01:07:41.448Z,4.30
2019-02-25T01:10:09.510Z,4.20
2019-02-25T01:12:37.065Z,4.20
2019-02-25T01:15:08.989Z,4.20
2019-02-25T01:17:36.766Z,4.30
2019-02-25T01:20:04.781Z,4.30
2019-02-25T01:22:32.365Z,4.30
2019-02-25T01:24:59.909Z,4.20
2019-02-25T01:27:27.390Z,4.20
2019-02-25T01:29:55.084Z,4.10
2019-02-25T01:32:22.810Z,4.10
2019-02-25T01:34:50.353Z,3.90
2019-02-25T01:37:17.969Z,3.90
2019-02-25T01:39:45.775Z,3.70
2019-02-25T01:42:15.342Z,3.60
2019-02-25T01:44:43.006Z,3.60
2019-02-25T01:47:11.123Z,3.60
2019-02-25T01:49:38.880Z,3.60
2019-02-25T01:52:06.545Z,3.60
2019-02-25T01:54:34.206Z,3.60
2019-02-25T01:57:02.015Z,3.60
2019-02-25T01:59:29.525Z,3.60
2019-02-25T02:01:56.978Z,3.70
2019-02-25T02:04:24.755Z,3.80
2019-02-25T02:06:54.173Z,3.80
2019-02-25T02:09:22.015Z,3.80
2019-02-25T02:11:49.490Z,3.90
2019-02-25T02:14:16.933Z,3.90
2019-02-25T02:16:44.453Z,3.90
2019-02-25T02:19:12.041Z,4.00
2019-02-25T02:21:39.738Z,4.00
2019-02-25T02:24:07.580Z,4.10
2019-02-25T02:26:35.104Z,4.10
2019-02-25T02:29:02.896Z,4.10
2019-02-25T02:31:30.355Z,4.20
2019-02-25T02:33:58.006Z,4.20
2019-02-25T02:36:25.727Z,4.20
2019-02-25T02:38:53.335Z,4.20
2019-02-25T02:41:20.728Z,4.20
2019-02-25T02:43:48.895Z,4.20
2019-02-25T02:47:06.711Z,4.20
2019-02-25T02:49:34.322Z,4.20
2019-02-25T02:52:01.846Z,4.20
2019-02-25T02:54:29.416Z,4.20
2019-02-25T02:56:57.170Z,4.20
2019-02-25T02:59:24.665Z,4.10
2019-02-25T03:01:52.199Z,3.90
2019-02-25T03:04:19.702Z,3.90
2019-02-25T03:06:47.183Z,3.80
2019-02-25T03:09:14.794Z,3.80
2019-02-25T03:11:42.517Z,3.90
2019-02-25T03:14:10.085Z,3.90
2019-02-25T03:16:37.591Z,3.90
2019-02-25T03:19:05.177Z,3.90
2019-02-25T03:21:32.617Z,3.80
2019-02-25T03:24:00.901Z,3.70
2019-02-25T03:26:28.329Z,3.60
2019-02-25T03:28:55.717Z,3.50
2019-02-25T03:31:23.185Z,3.50
2019-02-25T03:33:50.602Z,3.40
2019-02-25T03:36:18.084Z,3.30
2019-02-25T03:38:45.598Z,3.10
2019-02-25T03:41:13.054Z,2.90
2019-02-25T03:43:40.681Z,2.70
2019-02-25T03:46:08.278Z,2.60
2019-02-25T03:48:35.724Z,2.50
2019-02-25T03:51:03.277Z,2.40
2019-02-25T03:53:30.714Z,2.40
2019-02-25T03:55:58.353Z,2.40
2019-02-25T03:58:25.798Z,2.30
2019-02-25T04:00:53.686Z,2.40
2019-02-25T04:03:21.265Z,2.50
2019-02-25T04:05:48.943Z,2.50
2019-02-25T04:08:16.524Z,2.70
2019-02-25T04:10:44.151Z,2.80
2019-02-25T04:13:11.495Z,2.80
2019-02-25T04:15:41.660Z,2.80
2019-02-25T04:18:09.142Z,2.80
2019-02-25T04:20:36.664Z,2.60
2019-02-25T04:23:04.129Z,2.50
2019-02-25T04:25:31.590Z,2.50
2019-02-25T04:28:00.225Z,2.50
2019-02-25T04:30:27.792Z,2.40
2019-02-25T04:32:55.149Z,2.40
2019-02-25T04:35:22.816Z,2.30
2019-02-25T04:37:50.218Z,2.40
2019-02-25T04:40:17.658Z,2.40
2019-02-25T04:42:45.075Z,2.40
2019-02-25T04:45:14.962Z,2.40
2019-02-25T04:47:42.550Z,2.40
2019-02-25T04:50:10.923Z,2.30
2019-02-25T04:52:38.319Z,2.30
2019-02-25T04:55:06.488Z,2.30
2019-02-25T04:57:33.869Z,2.20
2019-02-25T05:00:02.438Z,2.20
2019-02-25T05:02:30.235Z,2.30
2019-02-25T05:04:57.786Z,2.30
2019-02-25T05:07:25.239Z,2.30
2019-02-25T05:09:52.681Z,2.20
2019-02-25T05:12:20.013Z,2.10
2019-02-25T05:14:48.692Z,2.00
2019-02-25T05:17:16.156Z,1.90
2019-02-25T05:19:43.650Z,1.80
2019-02-25T05:22:11.011Z,1.70
2019-02-25T05:24:39.116Z,1.60
2019-02-25T05:27:06.766Z,1.60
2019-02-25T05:29:34.263Z,1.60
2019-02-25T05:32:01.794Z,1.50
2019-02-25T05:34:29.557Z,1.50
2019-02-25T05:36:57.016Z,1.50
2019-02-25T05:39:24.534Z,1.50
2019-02-25T05:41:51.860Z,1.50
2019-02-25T05:44:19.518Z,1.50
2019-02-25T05:46:47.072Z,1.60
2019-02-25T05:49:14.571Z,1.50
2019-02-25T05:51:41.883Z,1.50
2019-02-25T05:54:09.342Z,1.50
2019-02-25T05:56:37.485Z,1.50
2019-02-25T05:59:05.079Z,1.50
2019-02-25T06:01:32.457Z,1.50
2019-02-25T06:03:59.817Z,1.50
2019-02-25T06:06:27.450Z,1.50
2019-02-25T06:08:54.826Z,1.50
2019-02-25T06:11:22.220Z,1.60
2019-02-25T06:13:50.768Z,1.60
2019-02-25T06:16:18.189Z,1.70
2019-02-25T06:18:46.230Z,1.90
2019-02-25T06:21:14.438Z,2.00
2019-02-25T06:23:41.956Z,2.30
2019-02-25T06:26:09.332Z,2.60
2019-02-25T06:28:36.708Z,2.90
2019-02-25T06:31:04.362Z,3.10
2019-02-25T06:33:31.845Z,3.40
2019-02-25T06:35:59.143Z,3.50
2019-02-25T06:38:26.505Z,3.70
2019-02-25T06:40:53.954Z,3.80
2019-02-25T06:43:21.524Z,3.90
2019-02-25T06:45:49.066Z,3.90
2019-02-25T06:48:16.574Z,4.00
2019-02-25T06:50:44.022Z,4.10
2019-02-25T06:53:11.401Z,4.20
2019-02-25T06:55:40.012Z,4.40
2019-02-25T06:58:07.455Z,4.70
2019-02-25T07:00:35.058Z,5.10
2019-02-25T07:03:02.602Z,5.50
2019-02-25T07:06:04.733Z,6.00
2019-02-25T07:08:47.652Z,6.60
2019-02-25T07:11:23.266Z,7.30
2019-02-25T07:14:05.825Z,7.70
2019-02-25T07:16:52.830Z,8.20
2019-02-25T07:19:39.969Z,8.50
2019-02-25T07:22:32.709Z,8.90
2019-02-25T07:25:14.253Z,9.40
2019-02-25T07:27:59.637Z,9.80
2019-02-25T07:31:04.941Z,10.30
2019-02-25T07:33:40.866Z,10.80
2019-02-25T07:36:19.080Z,11.50
2019-02-25T07:39:11.860Z,11.90
2019-02-25T07:41:52.617Z,12.30
2019-02-25T07:44:30.828Z,12.80
2019-02-25T07:47:26.995Z,13.20
2019-02-25T07:50:05.272Z,13.50
2019-02-25T07:52:43.220Z,13.90
2019-02-25T07:55:39.261Z,14.60
2019-02-25T07:58:32.295Z,15.30
2019-02-25T08:01:05.381Z,15.90
2019-02-25T08:04:03.164Z,16.40
2019-02-25T08:06:46.235Z,16.50
2019-02-25T08:09:39.658Z,16.70
2019-02-25T08:12:23.590Z,17.10
2019-02-25T08:15:09.136Z,18.00
2019-02-25T08:17:52.814Z,19.00
2019-02-25T08:20:40.304Z,19.10
2019-02-25T08:23:30.983Z,19.40
2019-02-25T08:26:13.722Z,19.80
2019-02-25T08:29:03.381Z,20.10
2019-02-25T08:31:48.264Z,20.70
2019-02-25T08:34:51.184Z,21.20
2019-02-25T08:38:08.486Z,21.70
2019-02-25T08:40:55.206Z,22.40
2019-02-25T08:43:37.030Z,22.50
2019-02-25T08:46:27.642Z,21.50
2019-02-25T08:49:05.383Z,20.50
2019-02-25T08:51:38.488Z,19.50
2019-02-25T08:54:08.418Z,18.70
2019-02-25T08:56:36.112Z,18.10
2019-02-25T08:59:04.273Z,17.40
2019-02-25T09:01:34.519Z,17.20
2019-02-25T09:04:02.462Z,17.00
2019-02-25T09:06:30.288Z,16.90
2019-02-25T09:08:58.157Z,16.80
2019-02-25T09:11:26.696Z,16.40
2019-02-25T09:13:55.828Z,16.10
2019-02-25T09:16:24.850Z,15.70
2019-02-25T09:18:54.156Z,15.60
2019-02-25T09:21:31.415Z,15.60
2019-02-25T09:23:56.368Z,15.60
2019-02-25T09:26:32.127Z,15.50
2019-02-25T09:29:04.180Z,15.80
2019-02-25T09:31:38.953Z,16.10
2019-02-25T09:34:08.369Z,16.20
2019-02-25T09:36:40.191Z,16.50
2019-02-25T09:39:16.665Z,16.80
2019-02-25T09:41:58.291Z,16.80
2019-02-25T09:44:29.959Z,16.90
2019-02-25T09:47:10.952Z,16.80
2019-02-25T09:49:40.610Z,16.70
2019-02-25T09:52:08.391Z,16.90
2019-02-25T09:54:44.484Z,16.90
2019-02-25T09:57:17.649Z,17.00
2019-02-25T09:59:49.679Z,17.60
2019-02-25T10:02:19.681Z,18.00
2019-02-25T10:04:49.023Z,18.40
2019-02-25T10:07:19.107Z,18.90
2019-02-25T10:09:48.445Z,19.60
2019-02-25T10:12:17.833Z,20.30
2019-02-25T10:14:49.440Z,20.90
2019-02-25T10:17:23.975Z,22.00
2019-02-25T10:19:59.512Z,23.20
2019-02-25T10:22:32.783Z,24.60
2019-02-25T10:25:01.572Z,25.40
2019-02-25T10:27:30.881Z,26.30
2019-02-25T10:30:04.175Z,27.10
2019-02-25T10:32:39.255Z,28.20
2019-02-25T10:35:10.795Z,28.10
2019-02-25T10:38:07.193Z,27.80
2019-02-25T10:40:47.282Z,28.10
2019-02-25T10:43:13.558Z,28.70
2019-02-25T10:45:48.488Z,29.20
2019-02-25T10:48:19.852Z,30.60
2019-02-25T10:50:55.922Z,31.50
2019-02-25T10:53:22.117Z,32.70
2019-02-25T10:56:01.023Z,32.90
2019-02-25T10:58:31.714Z,32.20
2019-02-25T11:01:02.700Z,32.40
2019-02-25T11:03:35.181Z,33.10
2019-02-25T11:06:05.670Z,33.60
2019-02-25T11:08:45.684Z,34.20
2019-02-25T11:11:21.000Z,34.60
2019-02-25T11:13:52.268Z,33.90
2019-02-25T11:16:22.984Z,33.50
2019-02-25T11:19:33.002Z,34.00
2019-02-25T11:22:48.544Z,35.00
2019-02-25T11:25:19.269Z,36.20
2019-02-25T11:27:50.213Z,36.80
2019-02-25T11:30:21.225Z,36.60
2019-02-25T11:32:56.186Z,36.30
2019-02-25T11:35:24.709Z,36.10
2019-02-25T11:37:58.465Z,36.40
2019-02-25T11:40:28.401Z,36.30
2019-02-25T11:43:02.690Z,36.70
2019-02-25T11:45:33.498Z,36.90
2019-02-25T11:48:09.170Z,37.50
2019-02-25T11:50:41.902Z,37.50
2019-02-25T11:53:12.332Z,37.20
2019-02-25T11:55:42.722Z,36.90
2019-02-25T11:58:11.651Z,37.30
2019-02-25T12:00:42.658Z,37.90
2019-02-25T12:03:12.535Z,38.30
2019-02-25T12:05:41.951Z,37.90
2019-02-25T12:08:19.432Z,36.30
2019-02-25T12:11:38.628Z,36.40
2019-02-25T12:14:14.595Z,36.20
2019-02-25T12:16:45.199Z,36.50
2019-02-25T12:19:23.431Z,36.30
2019-02-25T12:22:20.151Z,35.90
2019-02-25T12:24:50.493Z,35.60
2019-02-25T12:27:25.296Z,35.20
2019-02-25T12:30:27.596Z,35.00
2019-02-25T12:32:59.843Z,35.10
2019-02-25T12:35:49.312Z,34.70
2019-02-25T12:38:42.482Z,33.30
2019-02-25T12:41:31.468Z,32.50
2019-02-25T12:44:11.948Z,31.40
2019-02-25T12:51:07.814Z,29.00
2019-02-25T12:54:46.409Z,27.70
2019-02-25T12:57:31.987Z,27.40
2019-02-25T13:00:10.229Z,27.10
2019-02-25T13:02:40.012Z,26.40
2019-02-25T13:05:12.469Z,25.80
2019-02-25T13:07:50.348Z,24.80
2019-02-25T13:10:23.264Z,24.30
2019-02-25T13:12:54.558Z,24.10
2019-02-25T13:15:38.084Z,24.00
2019-02-25T13:18:45.168Z,24.10
2019-02-25T13:21:28.833Z,24.30
2019-02-25T13:24:10.970Z,24.00
2019-02-25T13:26:45.643Z,24.20
2019-02-25T13:29:22.661Z,23.90
2019-02-25T13:31:55.600Z,22.90
2019-02-25T13:34:27.991Z,22.20
2019-02-25T13:37:30.657Z,21.70
2019-02-25T13:40:10.128Z,21.40
2019-02-25T13:46:58.961Z,21.90
2019-02-25T13:49:35.067Z,22.80
2019-02-25T13:52:18.489Z,23.30
2019-02-25T13:54:48.043Z,23.50
2019-02-25T13:57:18.232Z,24.00
2019-02-25T13:59:55.651Z,24.30
2019-02-25T14:02:42.918Z,24.00
2019-02-25T14:05:23.987Z,24.20
2019-02-25T14:08:22.794Z,23.70
2019-02-25T14:10:54.153Z,24.00
2019-02-25T14:13:36.375Z,24.50
2019-02-25T14:16:42.681Z,24.50
2019-02-25T14:19:19.908Z,24.90
2019-02-25T14:22:06.264Z,24.80
2019-02-25T14:24:59.424Z,24.20
2019-02-25T14:27:50.948Z,23.70
2019-02-25T14:30:24.198Z,23.20
2019-02-25T14:32:59.777Z,22.30
2019-02-25T14:35:54.356Z,21.80
2019-02-25T14:38:32.158Z,20.70
2019-02-25T14:41:31.541Z,19.50
2019-02-25T14:44:16.528Z,18.40
2019-02-25T14:47:20.555Z,17.10
2019-02-25T14:49:49.203Z,16.70
2019-02-25T14:52:19.834Z,16.00
2019-02-25T14:54:49.902Z,15.50
2019-02-25T14:57:20.285Z,15.10
2019-02-25T14:59:47.488Z,14.70
2019-02-25T15:02:15.755Z,14.40
2019-02-25T15:04:43.903Z,14.10
2019-02-25T15:07:13.530Z,13.60
2019-02-25T15:09:43.585Z,13.40
2019-02-25T15:12:14.940Z,13.30
2019-02-25T15:14:42.975Z,13.00
2019-02-25T15:17:12.651Z,12.70
2019-02-25T15:19:41.190Z,12.50
2019-02-25T15:22:11.210Z,12.30
2019-02-25T15:24:38.914Z,12.20
2019-02-25T15:27:07.254Z,12.00
2019-02-25T15:29:37.101Z,11.80
2019-02-25T15:32:05.309Z,11.80
2019-02-25T15:34:32.857Z,11.70
2019-02-25T15:37:00.715Z,11.50
2019-02-25T15:39:29.985Z,11.40
2019-02-25T15:41:57.829Z,11.30
2019-02-25T15:44:26.921Z,11.20
2019-02-25T15:46:55.064Z,11.10
2019-02-25T15:49:24.425Z,10.90
2019-02-25T15:51:52.978Z,10.80
2019-02-25T15:54:20.862Z,10.60
2019-02-25T15:56:48.863Z,10.50
2019-02-25T15:59:16.495Z,10.40
2019-02-25T16:01:44.682Z,10.20
2019-02-25T16:04:13.469Z,10.10
2019-02-25T16:06:41.280Z,10.00
2019-02-25T16:09:09.375Z,9.80
2019-02-25T16:11:39.337Z,9.70
2019-02-25T16:14:09.718Z,9.60
2019-02-25T16:16:37.697Z,9.40
2019-02-25T16:19:05.985Z,9.30
2019-02-25T16:21:33.894Z,9.20
2019-02-25T16:24:04.196Z,9.00
2019-02-25T16:26:32.089Z,9.00
2019-02-25T16:29:04.628Z,8.70
2019-02-25T16:31:33.202Z,8.50
2019-02-25T16:34:02.656Z,8.40
2019-02-25T16:36:31.118Z,8.20
2019-02-25T16:39:00.427Z,8.00
2019-02-25T16:41:32.337Z,7.90
2019-02-25T16:44:02.073Z,7.80
2019-02-25T16:46:30.049Z,7.70
2019-02-25T16:48:57.737Z,7.60
2019-02-25T16:51:25.868Z,7.50
2019-02-25T16:53:55.141Z,7.40
2019-02-25T16:57:43.845Z,7.30
2019-02-25T17:00:14.729Z,7.20
2019-02-25T17:02:44.750Z,6.90
2019-02-25T17:06:06.779Z,6.80
2019-02-25T17:08:35.434Z,6.70
2019-02-25T17:11:02.998Z,6.60
2019-02-25T17:13:33.066Z,6.40
2019-02-25T17:16:02.754Z,6.40
2019-02-25T17:18:36.839Z,6.30
2019-02-25T17:21:05.118Z,6.20
2019-02-25T17:23:34.507Z,6.00
2019-02-25T17:26:07.388Z,5.90
2019-02-25T17:28:33.606Z,5.80
2019-02-25T17:31:48.605Z,5.70
2019-02-25T17:34:16.992Z,5.70
2019-02-25T17:36:47.348Z,5.60
2019-02-25T17:39:17.117Z,5.60
2019-02-25T17:41:44.882Z,5.50
2019-02-25T17:44:12.461Z,5.50
2019-02-25T17:46:43.354Z,5.50
2019-02-25T17:49:12.254Z,5.40
2019-02-25T17:51:40.462Z,5.40
2019-02-25T17:54:10.125Z,5.30
2019-02-25T17:56:37.897Z,5.20
2019-02-25T17:59:07.552Z,5.20
2019-02-25T18:01:36.033Z,5.10
2019-02-25T18:04:06.474Z,5.00
2019-02-25T18:06:34.414Z,4.90
2019-02-25T18:09:06.924Z,4.80
2019-02-25T18:11:39.074Z,4.70
2019-02-25T18:14:09.528Z,4.70
2019-02-25T18:16:39.169Z,4.60
2019-02-25T18:19:11.672Z,4.60
2019-02-25T18:21:43.021Z,4.50
2019-02-25T18:24:10.019Z,4.50
2019-02-25T18:26:40.027Z,4.40
2019-02-25T18:29:09.389Z,4.40
2019-02-25T18:31:37.676Z,4.40
2019-02-25T18:34:06.958Z,4.40
2019-02-25T18:36:36.421Z,4.30
2019-02-25T18:39:11.530Z,4.20
2019-02-25T18:45:02.709Z,4.20
2019-02-25T18:47:32.105Z,4.10
2019-02-25T18:50:00.935Z,4.10
2019-02-25T18:52:31.967Z,4.10
2019-02-25T18:55:02.816Z,4.20
2019-02-25T18:57:31.106Z,4.20
2019-02-25T18:59:59.430Z,4.20
2019-02-25T19:02:28.503Z,4.20
2019-02-25T19:04:58.254Z,4.20
2019-02-25T19:07:27.250Z,4.30
2019-02-25T19:09:58.075Z,4.40
2019-02-25T19:12:26.361Z,4.30
2019-02-25T19:14:55.730Z,4.30
2019-02-25T19:17:25.169Z,4.40
2019-02-25T19:19:53.040Z,4.50
2019-02-25T19:22:21.393Z,4.50
2019-02-25T19:24:50.512Z,4.70
2019-02-25T19:27:18.444Z,4.80
2019-02-25T19:29:47.692Z,4.90
2019-02-25T19:32:16.457Z,5.00
2019-02-25T19:34:44.809Z,5.10
2019-02-25T19:37:14.345Z,5.20
2019-02-25T19:39:43.821Z,5.30
2019-02-25T19:42:15.164Z,5.30
2019-02-25T19:44:40.954Z,5.40
2019-02-25T19:47:09.871Z,5.50
2019-02-25T19:49:38.986Z,5.60
2019-02-25T19:52:07.947Z,5.60
2019-02-25T19:54:38.452Z,5.70
2019-02-25T19:57:06.388Z,5.70
2019-02-25T19:59:33.888Z,5.80
2019-02-25T20:02:02.254Z,5.80
2019-02-25T20:04:33.468Z,5.80
2019-02-25T20:07:00.912Z,5.80
2019-02-25T20:09:28.965Z,5.70
2019-02-25T20:11:57.325Z,5.70
2019-02-25T20:14:25.765Z,5.70
2019-02-25T20:16:53.968Z,5.70
2019-02-25T20:19:21.545Z,5.60
2019-02-25T20:21:50.725Z,5.70
2019-02-25T20:24:19.481Z,5.70
2019-02-25T20:26:50.634Z,5.80
2019-02-25T20:29:18.701Z,5.90
2019-02-25T20:31:47.626Z,5.90
2019-02-25T20:34:18.431Z,6.00
2019-02-25T20:36:46.479Z,6.10
2019-02-25T20:39:17.019Z,6.10
2019-02-25T20:41:45.899Z,6.20
2019-02-25T20:44:18.571Z,6.30
2019-02-25T20:46:50.684Z,6.30
2019-02-25T20:49:18.376Z,6.30
2019-02-25T20:51:49.865Z,6.30
2019-02-25T20:54:18.578Z,6.30
2019-02-25T20:56:49.564Z,6.30
2019-02-25T20:59:20.967Z,6.20
2019-02-25T21:01:51.094Z,6.10
2019-02-25T21:04:21.829Z,6.10
2019-02-25T21:06:52.161Z,6.00
2019-02-25T21:09:20.875Z,5.90
2019-02-25T21:11:48.418Z,5.90
2019-02-25T21:14:15.950Z,5.90
2019-02-25T21:16:44.330Z,5.90
2019-02-25T21:19:14.433Z,5.90
2019-02-25T21:21:41.500Z,5.80
2019-02-25T21:24:11.275Z,5.70
2019-02-25T21:26:39.227Z,5.70
2019-02-25T21:29:09.727Z,5.70
2019-02-25T21:31:43.228Z,5.70
2019-02-25T21:34:15.337Z,5.70
2019-02-25T21:36:40.433Z,5.70
2019-02-25T21:39:11.702Z,5.80
2019-02-25T21:41:43.475Z,5.80
2019-02-25T21:44:14.241Z,5.80
2019-02-25T21:46:40.669Z,5.80
2019-02-25T21:49:08.476Z,5.70
2019-02-25T21:51:36.892Z,5.50
2019-02-25T21:54:06.641Z,5.50
2019-02-25T21:56:34.584Z,5.30
2019-02-25T21:59:02.327Z,5.20
2019-02-25T22:01:31.931Z,5.10
2019-02-25T22:03:59.843Z,5.00
2019-02-25T22:06:29.633Z,4.90
2019-02-25T22:09:10.680Z,4.80
2019-02-25T22:11:40.702Z,4.70
2019-02-25T22:14:09.969Z,4.60
2019-02-25T22:16:43.994Z,4.50
2019-02-25T22:19:09.866Z,4.40
2019-02-25T22:21:37.961Z,4.30
2019-02-25T22:24:07.469Z,4.30
2019-02-25T22:26:35.667Z,4.30
2019-02-25T22:29:04.532Z,4.20
2019-02-25T22:31:34.672Z,4.10
2019-02-25T22:34:01.809Z,4.10
2019-02-25T22:36:29.301Z,4.00
2019-02-25T22:38:58.955Z,4.00
2019-02-25T22:41:28.063Z,4.20
2019-02-25T22:43:55.681Z,4.40
2019-02-25T22:46:23.544Z,4.60
2019-02-25T22:48:53.990Z,4.90
2019-02-25T22:51:24.281Z,5.00
2019-02-25T22:53:51.639Z,5.10
2019-02-25T22:56:21.476Z,5.30
2019-02-25T22:58:48.609Z,5.40
2019-02-25T23:01:18.045Z,5.50
2019-02-25T23:03:47.946Z,5.60
2019-02-25T23:06:16.285Z,5.80
2019-02-25T23:08:46.446Z,5.80
2019-02-25T23:11:16.565Z,5.90
2019-02-25T23:13:45.713Z,5.90
2019-02-25T23:16:15.494Z,6.00
2019-02-25T23:18:47.736Z,6.00
2019-02-25T23:21:23.169Z,6.00
2019-02-25T23:23:42.819Z,6.00
2019-02-25T23:26:12.136Z,6.00
2019-02-25T23:28:39.887Z,6.10
2019-02-25T23:31:07.336Z,6.10
2019-02-25T23:33:38.128Z,6.20
2019-02-25T23:36:04.229Z,6.20
2019-02-25T23:38:31.885Z,6.30
2019-02-25T23:41:01.227Z,6.40
2019-02-25T23:43:28.677Z,6.50
2019-02-25T23:45:58.002Z,6.50
2019-02-25T23:48:30.213Z,6.50
2019-02-25T23:50:57.194Z,6.50
2019-02-25T23:53:26.645Z,6.40
2019-02-25T23:55:54.768Z,6.30
2019-02-25T23:58:24.119Z,6.20
